createdAt,value
2023-04-17T00:01:14.758Z,8.00
2023-04-17T00:03:45.391Z,8.00
2023-04-17T00:06:16.344Z,8.00
2023-04-17T00:08:45.300Z,8.00
2023-04-17T00:11:18.001Z,8.00
2023-04-17T00:13:47.585Z,7.90
2023-04-17T00:16:16.458Z,7.90
2023-04-17T00:18:45.367Z,7.90
2023-04-17T00:21:14.004Z,7.80
2023-04-17T00:23:43.262Z,7.80
2023-04-17T00:26:11.898Z,7.70
2023-04-17T00:28:45.027Z,7.70
2023-04-17T00:31:14.541Z,7.60
2023-04-17T00:33:43.825Z,7.60
2023-04-17T00:36:14.139Z,7.60
2023-04-17T00:38:44.045Z,7.50
2023-04-17T00:41:13.303Z,7.40
2023-04-17T00:43:42.451Z,7.30
2023-04-17T00:46:13.369Z,7.20
2023-04-17T00:48:42.896Z,7.20
2023-04-17T00:51:12.255Z,7.20
2023-04-17T00:53:42.030Z,7.20
2023-04-17T00:56:11.571Z,7.10
2023-04-17T00:58:41.429Z,7.00
2023-04-17T01:01:12.673Z,7.00
2023-04-17T01:03:42.276Z,6.80
2023-04-17T01:06:11.658Z,6.80
2023-04-17T01:08:44.808Z,6.80
2023-04-17T01:11:14.828Z,6.70
2023-04-17T01:13:48.308Z,6.70
2023-04-17T01:16:20.048Z,6.70
2023-04-17T01:18:49.946Z,6.70
2023-04-17T01:21:18.774Z,6.70
2023-04-17T01:23:52.743Z,6.60
2023-04-17T01:26:26.239Z,6.60
2023-04-17T01:28:57.927Z,6.70
2023-04-17T01:31:28.995Z,6.60
2023-04-17T01:33:58.480Z,6.50
2023-04-17T01:36:29.643Z,6.50
2023-04-17T01:38:59.263Z,6.50
2023-04-17T01:41:29.816Z,6.50
2023-04-17T01:43:59.527Z,6.40
2023-04-17T01:46:28.826Z,6.40
2023-04-17T01:48:58.743Z,6.40
2023-04-17T01:51:28.929Z,6.30
2023-04-17T01:53:58.313Z,6.30
2023-04-17T01:56:29.415Z,6.30
2023-04-17T01:58:58.444Z,6.40
2023-04-17T02:01:27.574Z,6.30
2023-04-17T02:03:56.871Z,6.40
2023-04-17T02:06:27.576Z,6.40
2023-04-17T02:08:56.880Z,6.40
2023-04-17T02:11:25.779Z,6.40
2023-04-17T02:13:56.462Z,6.40
2023-04-17T02:16:25.296Z,6.40
2023-04-17T02:18:54.537Z,6.30
2023-04-17T02:21:23.739Z,6.20
2023-04-17T02:23:52.449Z,6.10
2023-04-17T02:26:21.355Z,6.00
2023-04-17T02:28:50.235Z,6.00
2023-04-17T02:31:21.067Z,6.10
2023-04-17T02:33:50.076Z,6.10
2023-04-17T02:36:19.417Z,6.10
2023-04-17T02:38:48.592Z,6.10
2023-04-17T02:41:17.325Z,6.10
2023-04-17T02:43:46.772Z,6.20
2023-04-17T02:46:16.514Z,6.20
2023-04-17T02:48:48.326Z,6.20
2023-04-17T02:51:16.978Z,6.20
2023-04-17T02:53:46.645Z,6.20
2023-04-17T02:56:15.927Z,6.10
2023-04-17T02:58:45.861Z,6.10
2023-04-17T03:01:14.877Z,6.10
2023-04-17T03:03:48.092Z,6.00
2023-04-17T03:06:17.647Z,6.10
2023-04-17T03:08:46.575Z,6.10
2023-04-17T03:11:15.368Z,6.10
2023-04-17T03:13:45.178Z,6.10
2023-04-17T03:16:16.142Z,6.10
2023-04-17T03:18:49.502Z,6.10
2023-04-17T03:21:18.808Z,6.10
2023-04-17T03:23:47.755Z,6.00
2023-04-17T03:26:17.101Z,6.00
2023-04-17T03:28:45.870Z,6.00
2023-04-17T03:31:15.874Z,6.00
2023-04-17T03:33:45.125Z,5.90
2023-04-17T03:36:15.954Z,5.80
2023-04-17T03:38:45.418Z,5.90
2023-04-17T03:41:16.201Z,5.80
2023-04-17T03:43:45.446Z,5.80
2023-04-17T03:46:14.648Z,5.80
2023-04-17T03:48:44.566Z,5.70
2023-04-17T03:51:15.196Z,5.70
2023-04-17T03:53:45.016Z,5.80
2023-04-17T03:56:15.874Z,5.70
2023-04-17T03:58:46.874Z,5.70
2023-04-17T04:01:18.156Z,5.70
2023-04-17T04:04:04.357Z,5.60
2023-04-17T04:06:35.383Z,5.70
2023-04-17T04:09:05.208Z,5.60
2023-04-17T04:11:34.661Z,5.70
2023-04-17T04:14:04.756Z,5.70
2023-04-17T04:16:34.006Z,5.80
2023-04-17T04:19:10.618Z,5.80
2023-04-17T04:21:42.684Z,5.80
2023-04-17T04:24:15.243Z,5.80
2023-04-17T04:26:47.783Z,5.80
2023-04-17T04:29:18.582Z,5.80
2023-04-17T04:31:59.666Z,6.30
2023-04-17T04:34:36.917Z,5.80
2023-04-17T04:37:08.833Z,5.80
2023-04-17T04:39:41.676Z,5.80
2023-04-17T04:42:12.710Z,5.90
2023-04-17T04:45:00.458Z,5.90
2023-04-17T04:47:32.793Z,6.10
2023-04-17T04:50:02.260Z,6.10
2023-04-17T04:52:32.958Z,6.20
2023-04-17T04:55:08.708Z,6.30
2023-04-17T04:57:44.392Z,6.30
2023-04-17T05:00:16.282Z,6.40
2023-04-17T05:02:48.444Z,6.40
2023-04-17T05:05:20.925Z,6.40
2023-04-17T05:07:51.551Z,6.30
2023-04-17T05:10:21.786Z,6.40
2023-04-17T05:12:56.450Z,6.50
2023-04-17T05:15:26.374Z,6.70
2023-04-17T05:17:55.413Z,6.80
2023-04-17T05:20:26.723Z,6.90
2023-04-17T05:23:01.967Z,7.00
2023-04-17T05:25:31.362Z,7.10
2023-04-17T05:28:02.384Z,7.20
2023-04-17T05:30:31.458Z,7.30
2023-04-17T05:33:13.175Z,7.50
2023-04-17T05:35:50.176Z,7.60
2023-04-17T05:38:21.630Z,7.70
2023-04-17T05:40:50.806Z,7.80
2023-04-17T05:43:20.000Z,7.90
2023-04-17T05:45:49.410Z,8.00
2023-04-17T05:48:18.470Z,8.10
2023-04-17T05:50:47.578Z,8.20
2023-04-17T05:53:17.090Z,8.30
2023-04-17T05:55:57.108Z,8.50
2023-04-17T05:58:27.479Z,9.60
2023-04-17T06:01:00.246Z,8.70
2023-04-17T06:03:31.123Z,8.80
2023-04-17T06:06:11.910Z,8.90
2023-04-17T06:08:41.972Z,9.00
2023-04-17T06:11:12.461Z,9.20
2023-04-17T06:13:41.809Z,9.20
2023-04-17T06:16:13.851Z,9.30
2023-04-17T06:18:44.521Z,9.30
2023-04-17T06:21:13.904Z,9.50
2023-04-17T06:23:43.427Z,9.70
2023-04-17T06:26:14.109Z,9.60
2023-04-17T06:28:43.635Z,9.60
2023-04-17T06:31:13.655Z,9.90
2023-04-17T06:33:43.992Z,10.10
2023-04-17T06:36:14.610Z,10.10
2023-04-17T06:38:50.338Z,10.30
2023-04-17T06:41:23.778Z,10.40
2023-04-17T06:43:53.396Z,10.60
2023-04-17T06:46:26.690Z,10.80
2023-04-17T06:48:58.374Z,10.90
2023-04-17T06:51:28.091Z,11.10
2023-04-17T06:53:59.765Z,11.40
2023-04-17T06:56:30.700Z,11.50
2023-04-17T06:59:03.170Z,11.20
2023-04-17T07:01:33.550Z,11.20
2023-04-17T07:04:02.832Z,11.30
2023-04-17T07:06:34.947Z,11.80
2023-04-17T07:09:04.079Z,12.00
2023-04-17T07:11:37.467Z,12.00
2023-04-17T07:14:06.984Z,12.40
2023-04-17T07:16:36.450Z,11.80
2023-04-17T07:19:05.911Z,11.80
2023-04-17T07:21:36.415Z,12.00
2023-04-17T07:24:06.147Z,11.90
2023-04-17T07:26:41.051Z,12.50
2023-04-17T07:29:14.067Z,13.10
2023-04-17T07:31:43.428Z,13.40
2023-04-17T07:34:12.681Z,12.80
2023-04-17T07:36:42.273Z,12.50
2023-04-17T07:39:13.101Z,12.30
2023-04-17T07:41:43.807Z,12.00
2023-04-17T07:44:13.247Z,12.20
2023-04-17T07:46:42.892Z,12.80
2023-04-17T07:49:12.470Z,13.10
2023-04-17T07:51:43.094Z,13.50
2023-04-17T07:54:12.213Z,14.60
2023-04-17T07:56:46.918Z,14.10
2023-04-17T07:59:16.940Z,13.80
2023-04-17T08:01:46.200Z,14.10
2023-04-17T08:04:15.818Z,13.90
2023-04-17T08:06:45.012Z,14.20
2023-04-17T08:09:14.551Z,14.70
2023-04-17T08:11:56.429Z,14.30
2023-04-17T08:14:26.946Z,14.30
2023-04-17T08:16:56.046Z,15.00
2023-04-17T08:19:24.927Z,14.70
2023-04-17T08:22:01.817Z,15.00
2023-04-17T08:24:30.696Z,15.60
2023-04-17T08:27:01.694Z,16.30
2023-04-17T08:29:30.736Z,16.30
2023-04-17T08:32:13.459Z,15.30
2023-04-17T08:34:44.331Z,15.10
2023-04-17T08:37:15.966Z,14.30
2023-04-17T08:43:03.801Z,14.10
2023-04-17T08:45:34.294Z,14.70
2023-04-17T08:48:03.699Z,15.30
2023-04-17T08:50:33.953Z,14.80
2023-04-17T08:53:03.013Z,15.20
2023-04-17T08:55:34.324Z,14.60
2023-04-17T08:58:08.002Z,14.10
2023-04-17T09:00:41.611Z,14.30
2023-04-17T09:03:13.201Z,14.20
2023-04-17T09:05:47.508Z,14.10
2023-04-17T09:08:21.216Z,14.30
2023-04-17T09:10:52.062Z,14.00
2023-04-17T09:13:26.751Z,15.40
2023-04-17T09:16:07.690Z,16.20
2023-04-17T09:18:43.306Z,16.90
2023-04-17T09:21:24.031Z,17.60
2023-04-17T09:23:55.770Z,17.80
2023-04-17T09:26:27.129Z,18.60
2023-04-17T09:29:09.502Z,19.00
2023-04-17T09:31:40.209Z,18.40
2023-04-17T09:34:12.274Z,18.60
2023-04-17T09:36:43.529Z,19.10
2023-04-17T09:39:21.124Z,18.20
2023-04-17T09:41:50.517Z,18.60
2023-04-17T09:44:31.016Z,18.50
2023-04-17T09:47:02.634Z,18.90
2023-04-17T09:49:35.616Z,19.70
2023-04-17T09:52:06.124Z,19.20
2023-04-17T09:54:38.483Z,19.00
2023-04-17T09:57:09.696Z,19.30
2023-04-17T09:59:45.710Z,20.10
2023-04-17T10:02:16.423Z,19.70
2023-04-17T10:04:48.197Z,20.20
2023-04-17T10:07:18.168Z,21.10
2023-04-17T10:09:47.774Z,21.60
2023-04-17T10:12:18.062Z,21.60
2023-04-17T10:14:53.643Z,22.40
2023-04-17T10:17:29.107Z,21.00
2023-04-17T10:19:58.327Z,21.50
2023-04-17T10:22:32.167Z,22.00
2023-04-17T10:25:24.967Z,22.70
2023-04-17T10:27:59.809Z,22.40
2023-04-17T10:30:55.454Z,21.80
2023-04-17T10:33:27.845Z,20.80
2023-04-17T10:35:57.275Z,22.30
2023-04-17T10:38:37.964Z,21.60
2023-04-17T10:41:13.100Z,19.60
2023-04-17T10:43:44.200Z,19.60
2023-04-17T10:46:15.698Z,21.30
2023-04-17T10:48:52.922Z,22.20
2023-04-17T10:51:44.818Z,22.80
2023-04-17T10:54:16.097Z,23.50
2023-04-17T10:56:48.874Z,22.50
2023-04-17T10:59:19.209Z,22.90
2023-04-17T11:02:05.100Z,22.70
2023-04-17T11:04:35.383Z,21.00
2023-04-17T11:07:04.268Z,21.60
2023-04-17T11:09:33.867Z,21.90
2023-04-17T11:12:03.680Z,22.80
2023-04-17T11:14:34.997Z,21.90
2023-04-17T11:17:05.855Z,21.80
2023-04-17T11:19:35.002Z,22.50
2023-04-17T11:22:04.220Z,23.80
2023-04-17T11:24:34.399Z,23.30
2023-04-17T11:27:04.062Z,22.40
2023-04-17T11:29:33.778Z,22.90
2023-04-17T11:32:03.011Z,23.20
2023-04-17T11:34:33.965Z,23.00
2023-04-17T11:37:06.037Z,22.70
2023-04-17T11:39:39.466Z,24.20
2023-04-17T11:42:14.362Z,26.60
2023-04-17T11:44:45.776Z,25.90
2023-04-17T11:47:15.777Z,26.50
2023-04-17T11:49:48.396Z,25.50
2023-04-17T11:52:18.112Z,23.60
2023-04-17T11:54:47.021Z,23.40
2023-04-17T11:57:16.895Z,22.80
2023-04-17T11:59:46.585Z,23.70
2023-04-17T12:02:17.099Z,23.00
2023-04-17T12:04:47.522Z,22.00
2023-04-17T12:07:25.794Z,23.50
2023-04-17T12:09:59.230Z,25.00
2023-04-17T12:12:29.446Z,25.00
2023-04-17T12:14:59.763Z,24.30
2023-04-17T12:17:29.358Z,23.80
2023-04-17T12:20:04.089Z,22.20
2023-04-17T12:22:33.795Z,23.50
2023-04-17T12:25:03.038Z,23.80
2023-04-17T12:27:39.217Z,23.50
2023-04-17T12:30:09.960Z,25.80
2023-04-17T12:32:40.369Z,24.00
2023-04-17T12:35:11.832Z,22.60
2023-04-17T12:37:40.928Z,22.10
2023-04-17T12:40:12.193Z,22.50
2023-04-17T12:42:48.731Z,22.50
2023-04-17T12:45:19.984Z,23.70
2023-04-17T12:47:49.035Z,23.10
2023-04-17T12:50:19.644Z,21.80
2023-04-17T12:52:48.275Z,23.10
2023-04-17T12:55:17.094Z,22.10
2023-04-17T12:57:46.812Z,21.50
2023-04-17T13:00:17.147Z,21.40
2023-04-17T13:02:46.589Z,20.50
2023-04-17T13:05:15.612Z,19.80
2023-04-17T13:07:46.881Z,19.00
2023-04-17T13:10:16.151Z,18.90
2023-04-17T13:12:45.334Z,19.90
2023-04-17T13:15:15.445Z,20.60
2023-04-17T13:17:45.689Z,19.20
2023-04-17T13:20:14.862Z,19.20
2023-04-17T13:22:46.009Z,19.60
2023-04-17T13:25:15.741Z,19.40
2023-04-17T13:27:44.884Z,18.90
2023-04-17T13:30:14.734Z,18.10
2023-04-17T13:32:45.523Z,17.40
2023-04-17T13:35:15.340Z,17.60
2023-04-17T13:37:46.748Z,17.30
2023-04-17T13:40:17.431Z,17.60
2023-04-17T13:42:46.494Z,17.80
2023-04-17T13:45:16.475Z,18.30
2023-04-17T13:47:46.586Z,18.50
2023-04-17T13:50:19.393Z,18.30
2023-04-17T13:52:49.976Z,18.80
2023-04-17T13:55:19.414Z,18.20
2023-04-17T13:57:48.278Z,18.50
2023-04-17T14:00:18.677Z,17.90
2023-04-17T14:02:48.696Z,17.70
2023-04-17T14:05:20.807Z,16.90
2023-04-17T14:07:51.775Z,16.50
2023-04-17T14:10:21.254Z,16.10
2023-04-17T14:12:50.037Z,15.90
2023-04-17T14:15:20.246Z,15.80
2023-04-17T14:17:49.842Z,15.50
2023-04-17T14:20:20.316Z,15.40
2023-04-17T14:22:51.896Z,15.50
2023-04-17T14:25:20.983Z,15.60
2023-04-17T14:27:52.352Z,15.60
2023-04-17T14:30:21.509Z,15.80
2023-04-17T14:32:52.470Z,15.80
2023-04-17T14:35:22.711Z,16.10
2023-04-17T14:37:54.066Z,16.70
2023-04-17T14:40:23.096Z,17.10
2023-04-17T14:42:54.825Z,17.60
2023-04-17T14:45:24.869Z,19.30
2023-04-17T14:47:55.125Z,20.30
2023-04-17T14:50:24.128Z,20.00
2023-04-17T14:52:55.949Z,20.70
2023-04-17T14:55:26.150Z,20.10
2023-04-17T14:57:56.047Z,21.00
2023-04-17T15:00:25.550Z,21.80
2023-04-17T15:02:55.119Z,21.00
2023-04-17T15:05:24.721Z,20.10
2023-04-17T15:07:56.066Z,19.80
2023-04-17T15:10:26.609Z,20.00
2023-04-17T15:13:00.490Z,19.70
2023-04-17T15:15:30.043Z,20.10
2023-04-17T15:17:58.646Z,19.90
2023-04-17T15:20:29.095Z,20.00
2023-04-17T15:23:00.465Z,21.10
2023-04-17T15:25:29.719Z,21.10
2023-04-17T15:27:58.819Z,20.40
2023-04-17T15:30:28.407Z,19.70
2023-04-17T15:32:57.791Z,19.00
2023-04-17T15:35:31.906Z,18.40
2023-04-17T15:38:03.539Z,17.50
2023-04-17T15:40:34.262Z,16.90
2023-04-17T15:43:03.899Z,16.70
2023-04-17T15:45:32.938Z,16.30
2023-04-17T15:48:02.896Z,15.90
2023-04-17T15:50:36.850Z,16.00
2023-04-17T15:53:09.047Z,16.10
2023-04-17T15:55:38.982Z,15.40
2023-04-17T15:58:07.820Z,14.90
2023-04-17T16:00:36.765Z,14.80
2023-04-17T16:03:07.960Z,14.80
2023-04-17T16:05:37.424Z,14.60
2023-04-17T16:08:07.868Z,14.40
2023-04-17T16:10:37.110Z,14.30
2023-04-17T16:13:06.747Z,14.40
2023-04-17T16:15:35.953Z,14.30
2023-04-17T16:18:05.935Z,14.30
2023-04-17T16:20:35.273Z,14.20
2023-04-17T16:23:04.761Z,14.00
2023-04-17T16:25:35.681Z,14.10
2023-04-17T16:28:05.055Z,13.90
2023-04-17T16:30:34.441Z,13.70
2023-04-17T16:33:04.048Z,13.70
2023-04-17T16:35:32.793Z,13.60
2023-04-17T16:38:02.172Z,13.60
2023-04-17T16:40:33.166Z,13.50
2023-04-17T16:43:04.649Z,13.50
2023-04-17T16:45:33.966Z,13.40
2023-04-17T16:48:04.839Z,13.30
2023-04-17T16:50:34.784Z,13.30
2023-04-17T16:53:06.260Z,13.20
2023-04-17T16:55:36.264Z,13.10
2023-04-17T16:58:07.156Z,13.10
2023-04-17T17:00:37.652Z,13.10
2023-04-17T17:03:07.251Z,13.10
2023-04-17T17:05:37.224Z,13.00
2023-04-17T17:08:07.759Z,12.80
2023-04-17T17:10:37.245Z,12.60
2023-04-17T17:13:07.623Z,12.50
2023-04-17T17:15:37.437Z,12.50
2023-04-17T17:18:07.016Z,12.40
2023-04-17T17:20:37.116Z,12.30
2023-04-17T17:23:06.084Z,12.20
2023-04-17T17:25:35.250Z,12.10
2023-04-17T17:28:04.582Z,12.00
2023-04-17T17:30:35.322Z,12.00
2023-04-17T17:33:04.906Z,12.00
2023-04-17T17:35:33.729Z,11.90
2023-04-17T17:38:02.552Z,11.80
2023-04-17T17:40:31.408Z,11.80
2023-04-17T17:43:03.611Z,11.80
2023-04-17T17:45:32.733Z,11.80
2023-04-17T17:48:03.364Z,11.70
2023-04-17T17:50:33.606Z,11.70
2023-04-17T17:53:02.473Z,11.60
2023-04-17T17:55:34.274Z,11.60
2023-04-17T17:58:03.637Z,11.60
2023-04-17T18:00:32.867Z,11.60
2023-04-17T18:03:03.633Z,11.50
2023-04-17T18:05:33.679Z,11.50
2023-04-17T18:08:02.598Z,11.50
2023-04-17T18:10:31.842Z,11.40
2023-04-17T18:13:00.694Z,11.30
2023-04-17T18:15:29.917Z,11.30
2023-04-17T18:18:00.230Z,11.20
2023-04-17T18:20:31.217Z,11.20
2023-04-17T18:23:00.233Z,11.20
2023-04-17T18:25:29.367Z,11.30
2023-04-17T18:27:59.440Z,11.30
2023-04-17T18:30:28.499Z,11.40
2023-04-17T18:32:57.367Z,11.40
2023-04-17T18:35:26.406Z,11.40
2023-04-17T18:37:57.618Z,11.50
2023-04-17T18:40:26.513Z,11.40
2023-04-17T18:42:55.414Z,11.50
2023-04-17T18:45:24.973Z,11.50
2023-04-17T18:47:53.866Z,11.60
2023-04-17T18:50:23.481Z,11.60
2023-04-17T18:52:52.989Z,11.60
2023-04-17T18:55:23.573Z,11.50
2023-04-17T18:57:53.151Z,11.50
2023-04-17T19:00:22.584Z,11.50
2023-04-17T19:02:52.421Z,11.40
2023-04-17T19:05:21.991Z,11.40
2023-04-17T19:07:52.504Z,11.30
2023-04-17T19:10:24.990Z,11.30
2023-04-17T19:12:54.603Z,11.20
2023-04-17T19:15:24.626Z,11.10
2023-04-17T19:17:53.780Z,11.10
2023-04-17T19:20:23.785Z,11.10
2023-04-17T19:22:53.038Z,11.00
2023-04-17T19:25:23.781Z,11.10
2023-04-17T19:27:52.848Z,11.00
2023-04-17T19:30:22.454Z,11.00
2023-04-17T19:32:52.099Z,11.00
2023-04-17T19:35:21.422Z,10.90
2023-04-17T19:37:50.701Z,10.90
2023-04-17T19:40:25.157Z,10.90
2023-04-17T19:43:01.508Z,10.90
2023-04-17T19:45:33.164Z,10.90
2023-04-17T19:48:03.058Z,10.80
2023-04-17T19:50:32.569Z,10.70
2023-04-17T19:53:01.502Z,10.70
2023-04-17T19:55:32.851Z,10.60
2023-04-17T19:58:04.895Z,10.50
2023-04-17T20:00:33.915Z,10.50
2023-04-17T20:03:02.871Z,10.50
2023-04-17T20:05:32.524Z,10.60
2023-04-17T20:08:03.107Z,10.60
2023-04-17T20:10:32.411Z,10.40
2023-04-17T20:13:01.712Z,10.30
2023-04-17T20:15:32.737Z,10.20
2023-04-17T20:18:02.055Z,10.10
2023-04-17T20:20:31.275Z,10.30
2023-04-17T20:23:01.762Z,10.30
2023-04-17T20:25:31.474Z,10.20
2023-04-17T20:28:03.060Z,10.30
2023-04-17T20:30:35.177Z,10.10
2023-04-17T20:33:04.427Z,10.00
2023-04-17T20:35:33.415Z,10.00
2023-04-17T20:38:03.104Z,10.00
2023-04-17T20:40:32.256Z,10.10
2023-04-17T20:43:01.514Z,10.00
2023-04-17T20:45:30.605Z,10.00
2023-04-17T20:48:02.170Z,9.90
2023-04-17T20:50:31.835Z,9.90
2023-04-17T20:53:01.164Z,10.00
2023-04-17T20:55:30.384Z,9.90
2023-04-17T20:58:00.017Z,9.90
2023-04-17T21:00:33.721Z,9.90
2023-04-17T21:03:08.840Z,10.00
2023-04-17T21:05:38.574Z,9.90
2023-04-17T21:08:07.799Z,9.90
2023-04-17T21:10:37.160Z,9.90
2023-04-17T21:13:06.558Z,9.80
2023-04-17T21:15:39.366Z,9.80
2023-04-17T21:18:11.712Z,9.90
2023-04-17T21:20:42.234Z,9.80
2023-04-17T21:23:12.243Z,9.80
2023-04-17T21:25:41.093Z,9.70
2023-04-17T21:28:10.587Z,9.70
2023-04-17T21:30:40.882Z,9.70
2023-04-17T21:33:11.477Z,9.60
2023-04-17T21:35:40.630Z,9.60
2023-04-17T21:38:09.488Z,9.70
2023-04-17T21:40:50.168Z,9.80
2023-04-17T21:43:20.070Z,9.70
2023-04-17T21:45:50.166Z,9.70
2023-04-17T21:48:21.529Z,9.70
2023-04-17T21:50:50.593Z,9.70
2023-04-17T21:53:19.645Z,9.70
2023-04-17T21:55:48.670Z,9.60
2023-04-17T21:58:17.934Z,9.60
2023-04-17T22:00:46.956Z,9.50
2023-04-17T22:03:16.242Z,9.50
2023-04-17T22:05:46.843Z,9.50
2023-04-17T22:08:15.816Z,9.40
2023-04-17T22:10:45.165Z,9.40
2023-04-17T22:13:15.908Z,9.40
2023-04-17T22:15:45.482Z,9.30
2023-04-17T22:18:14.316Z,9.30
2023-04-17T22:20:46.627Z,9.30
2023-04-17T22:23:16.092Z,9.20
2023-04-17T22:25:45.109Z,9.30
2023-04-17T22:28:14.488Z,9.40
2023-04-17T22:30:44.886Z,9.30
2023-04-17T22:33:14.053Z,9.30
2023-04-17T22:35:43.489Z,9.30
2023-04-17T22:38:14.215Z,9.20
2023-04-17T22:40:43.643Z,9.20
2023-04-17T22:43:12.938Z,9.30
2023-04-17T22:45:42.513Z,9.30
2023-04-17T22:48:11.422Z,9.30
2023-04-17T22:50:40.885Z,9.30
2023-04-17T22:53:10.205Z,9.20
2023-04-17T22:55:40.629Z,9.20
2023-04-17T22:58:09.900Z,9.30
2023-04-17T23:00:39.447Z,9.40
2023-04-17T23:03:08.674Z,9.30
2023-04-17T23:05:37.660Z,9.20
2023-04-17T23:08:06.585Z,9.10
2023-04-17T23:10:35.823Z,9.10
2023-04-17T23:13:06.207Z,9.10
2023-04-17T23:15:35.074Z,9.10
2023-04-17T23:18:04.057Z,9.00
2023-04-17T23:20:33.019Z,9.00
2023-04-17T23:23:02.422Z,8.90
2023-04-17T23:25:31.393Z,9.00
2023-04-17T23:28:00.279Z,9.00
2023-04-17T23:30:30.758Z,9.00
2023-04-17T23:32:59.591Z,8.90
2023-04-17T23:35:28.871Z,8.90
2023-04-17T23:37:57.589Z,8.90
2023-04-17T23:40:28.781Z,8.90
2023-04-17T23:42:57.756Z,8.80
2023-04-17T23:45:26.924Z,8.80
2023-04-17T23:47:57.561Z,8.90
2023-04-17T23:50:26.352Z,8.90
2023-04-17T23:52:55.700Z,8.80
2023-04-17T23:55:26.393Z,8.90
2023-04-17T23:57:55.101Z,8.80
